createdAt,value
2017-11-14T00:00:18.760Z,13.60
2017-11-14T00:02:46.687Z,16.60
2017-11-14T00:05:14.274Z,12.67
2017-11-14T00:07:41.880Z,11.77
2017-11-14T00:10:09.502Z,14.07
2017-11-14T00:12:37.100Z,13.23
2017-11-14T00:15:04.716Z,14.70
2017-11-14T00:17:32.301Z,12.50
2017-11-14T00:19:59.960Z,11.80
2017-11-14T00:22:27.581Z,16.80
2017-11-14T00:24:55.165Z,11.50
2017-11-14T00:27:22.793Z,15.60
2017-11-14T00:29:50.393Z,11.83
2017-11-14T00:32:17.978Z,15.00
2017-11-14T00:34:45.596Z,26.03
2017-11-14T00:37:13.194Z,16.37
2017-11-14T00:39:41.117Z,13.40
2017-11-14T00:42:08.703Z,14.80
2017-11-14T00:44:36.546Z,26.23
2017-11-14T00:47:04.162Z,17.13
2017-11-14T00:49:31.773Z,17.00
2017-11-14T00:51:59.426Z,14.70
2017-11-14T00:54:27.028Z,15.67
2017-11-14T00:56:54.615Z,21.67
2017-11-14T00:59:22.481Z,13.20
2017-11-14T01:01:50.063Z,12.20
2017-11-14T01:04:17.702Z,15.93
2017-11-14T01:06:45.290Z,11.50
2017-11-14T01:09:12.874Z,13.17
2017-11-14T01:11:40.484Z,12.47
2017-11-14T01:14:08.076Z,16.47
2017-11-14T01:16:35.743Z,15.73
2017-11-14T01:19:03.327Z,15.00
2017-11-14T01:21:30.920Z,18.93
2017-11-14T01:23:58.846Z,12.43
2017-11-14T01:26:26.431Z,14.13
2017-11-14T01:28:54.381Z,13.83
2017-11-14T01:31:21.987Z,16.60
2017-11-14T01:33:49.589Z,13.07
2017-11-14T01:36:17.213Z,14.27
2017-11-14T01:38:44.807Z,12.93
2017-11-14T01:41:12.456Z,15.07
2017-11-14T01:43:40.358Z,15.07
2017-11-14T01:46:07.965Z,14.53
2017-11-14T01:48:35.885Z,18.93
2017-11-14T01:51:03.480Z,16.17
2017-11-14T01:53:31.109Z,12.60
2017-11-14T01:55:58.702Z,14.43
2017-11-14T01:58:26.295Z,13.87
2017-11-14T02:00:53.912Z,14.47
2017-11-14T02:03:21.494Z,18.40
2017-11-14T02:05:49.122Z,17.87
2017-11-14T02:08:16.709Z,14.40
2017-11-14T02:10:44.302Z,16.03
2017-11-14T02:13:11.948Z,14.00
2017-11-14T02:15:39.529Z,14.53
2017-11-14T02:18:07.121Z,16.83
2017-11-14T02:20:34.749Z,15.47
2017-11-14T02:23:02.370Z,16.37
2017-11-14T02:25:30.013Z,16.63
2017-11-14T02:27:57.658Z,18.53
2017-11-14T02:30:25.247Z,14.87
2017-11-14T02:32:52.871Z,17.33
2017-11-14T02:35:20.510Z,17.37
2017-11-14T02:37:48.109Z,15.80
2017-11-14T02:40:15.739Z,13.00
2017-11-14T02:42:43.338Z,14.77
2017-11-14T02:45:11.223Z,15.67
2017-11-14T02:47:38.806Z,17.03
2017-11-14T02:50:06.409Z,19.73
2017-11-14T02:52:34.049Z,17.93
2017-11-14T02:55:01.659Z,18.13
2017-11-14T02:57:29.298Z,20.30
2017-11-14T02:59:56.892Z,18.13
2017-11-14T03:02:24.498Z,19.60
2017-11-14T03:04:52.420Z,16.67
2017-11-14T03:07:20.391Z,19.63
2017-11-14T03:09:48.021Z,16.57
2017-11-14T03:12:15.615Z,17.13
2017-11-14T03:14:43.188Z,19.93
2017-11-14T03:17:10.798Z,23.83
2017-11-14T03:19:38.438Z,19.13
2017-11-14T03:22:06.058Z,21.70
2017-11-14T03:24:33.703Z,19.73
2017-11-14T03:27:01.290Z,23.30
2017-11-14T03:29:28.907Z,20.10
2017-11-14T03:31:56.506Z,22.13
2017-11-14T03:34:24.128Z,22.17
2017-11-14T03:36:51.728Z,20.57
2017-11-14T03:39:19.316Z,21.13
2017-11-14T03:41:46.942Z,27.53
2017-11-14T03:44:14.524Z,22.20
2017-11-14T03:46:42.205Z,29.93
2017-11-14T03:49:10.171Z,24.37
2017-11-14T03:51:37.763Z,21.77
2017-11-14T03:54:05.386Z,24.70
2017-11-14T03:56:32.994Z,22.07
2017-11-14T03:59:00.627Z,24.83
2017-11-14T04:01:28.212Z,25.23
2017-11-14T04:03:55.814Z,21.80
2017-11-14T04:06:23.421Z,24.23
2017-11-14T04:08:51.017Z,25.87
2017-11-14T04:11:18.640Z,22.90
2017-11-14T04:13:46.250Z,25.83
2017-11-14T04:16:13.848Z,30.43
2017-11-14T04:18:41.491Z,31.33
2017-11-14T04:21:09.077Z,27.77
2017-11-14T04:23:36.714Z,25.43
2017-11-14T04:26:04.302Z,28.30
2017-11-14T04:28:31.934Z,26.27
2017-11-14T04:30:59.544Z,26.13
2017-11-14T04:33:27.146Z,30.37
2017-11-14T04:35:55.047Z,23.63
2017-11-14T04:38:22.685Z,20.30
2017-11-14T04:40:50.565Z,26.83
2017-11-14T04:43:18.184Z,28.33
2017-11-14T04:45:46.105Z,32.83
2017-11-14T04:48:13.749Z,27.50
2017-11-14T04:50:41.332Z,31.83
2017-11-14T04:53:09.186Z,28.50
2017-11-14T04:55:36.807Z,29.40
2017-11-14T04:58:04.403Z,25.90
2017-11-14T05:00:32.036Z,28.57
2017-11-14T05:02:59.621Z,35.90
2017-11-14T05:05:27.512Z,35.20
2017-11-14T05:07:55.892Z,30.80
2017-11-14T05:10:23.473Z,29.70
2017-11-14T05:12:51.102Z,29.87
2017-11-14T05:15:18.689Z,31.90
2017-11-14T05:17:46.272Z,30.67
2017-11-14T05:20:13.933Z,32.60
2017-11-14T05:22:41.576Z,29.10
2017-11-14T05:25:09.201Z,28.13
2017-11-14T05:27:36.799Z,31.07
2017-11-14T05:30:04.581Z,30.30
2017-11-14T05:32:32.287Z,26.47
2017-11-14T05:34:59.877Z,28.70
2017-11-14T05:37:27.550Z,29.07
2017-11-14T05:39:55.205Z,32.60
2017-11-14T05:42:22.824Z,30.10
2017-11-14T05:44:50.751Z,33.57
2017-11-14T05:47:18.354Z,31.80
2017-11-14T05:49:45.984Z,27.90
2017-11-14T05:52:13.598Z,30.43
2017-11-14T05:54:41.210Z,32.50
2017-11-14T05:57:08.838Z,31.17
2017-11-14T05:59:36.428Z,26.60
2017-11-14T06:02:04.059Z,27.70
2017-11-14T06:04:31.935Z,29.57
2017-11-14T06:06:59.553Z,28.90
2017-11-14T06:09:27.152Z,31.33
2017-11-14T06:11:55.546Z,30.40
2017-11-14T06:14:23.152Z,43.83
2017-11-14T06:16:50.743Z,36.77
2017-11-14T06:19:18.415Z,32.90
2017-11-14T06:21:46.081Z,49.57
2017-11-14T06:24:13.729Z,61.93
2017-11-14T06:26:41.323Z,56.53
2017-11-14T06:29:08.916Z,42.80
2017-11-14T06:31:36.542Z,36.73
2017-11-14T06:34:04.176Z,41.63
2017-11-14T06:36:31.813Z,53.53
2017-11-14T06:38:59.426Z,63.27
2017-11-14T06:41:27.146Z,67.47
2017-11-14T06:43:54.845Z,79.30
2017-11-14T06:46:22.471Z,70.03
2017-11-14T06:48:50.094Z,61.63
2017-11-14T06:51:17.682Z,40.00
2017-11-14T06:53:45.274Z,39.30
2017-11-14T06:56:13.217Z,59.13
2017-11-14T06:58:41.243Z,60.17
2017-11-14T07:01:09.058Z,95.67
2017-11-14T07:03:36.644Z,81.57
2017-11-14T07:06:04.243Z,47.73
2017-11-14T07:08:31.912Z,81.47
2017-11-14T07:10:59.562Z,54.03
2017-11-14T07:13:27.211Z,61.77
2017-11-14T07:15:54.806Z,116.90
2017-11-14T07:18:22.426Z,81.80
2017-11-14T07:20:50.268Z,89.50
2017-11-14T07:23:17.934Z,159.77
2017-11-14T07:25:45.575Z,150.17
2017-11-14T07:28:14.114Z,154.93
2017-11-14T07:30:41.697Z,90.70
2017-11-14T07:33:09.315Z,132.13
2017-11-14T07:35:36.912Z,64.40
2017-11-14T07:38:04.878Z,98.80
2017-11-14T07:40:32.495Z,73.03
2017-11-14T07:43:00.411Z,85.10
2017-11-14T07:45:28.040Z,93.73
2017-11-14T07:47:55.735Z,140.67
2017-11-14T07:50:23.385Z,58.70
2017-11-14T07:52:51.396Z,108.77
2017-11-14T07:55:18.993Z,89.00
2017-11-14T07:57:46.627Z,62.53
2017-11-14T08:00:14.334Z,101.40
2017-11-14T08:02:42.444Z,61.33
2017-11-14T08:05:10.100Z,57.53
2017-11-14T08:07:42.344Z,62.80
2017-11-14T08:10:10.057Z,62.60
2017-11-14T08:15:32.359Z,69.53
2017-11-14T08:18:00.126Z,126.17
2017-11-14T08:20:27.838Z,64.63
2017-11-14T08:22:55.897Z,80.20
2017-11-14T08:25:23.528Z,60.40
2017-11-14T08:27:51.158Z,57.73
2017-11-14T08:30:18.809Z,64.83
2017-11-14T08:32:46.458Z,53.20
2017-11-14T08:35:14.074Z,54.83
2017-11-14T08:37:41.711Z,53.87
2017-11-14T08:40:09.340Z,55.83
2017-11-14T08:42:37.396Z,47.63
2017-11-14T08:45:05.058Z,54.13
2017-11-14T08:47:32.677Z,51.43
2017-11-14T08:50:00.491Z,63.80
2017-11-14T08:52:28.134Z,53.37
2017-11-14T08:54:55.852Z,46.13
2017-11-14T08:57:23.480Z,67.23
2017-11-14T08:59:51.131Z,48.70
2017-11-14T09:02:18.943Z,49.60
2017-11-14T09:04:46.565Z,46.63
2017-11-14T09:07:14.428Z,55.47
2017-11-14T09:09:42.087Z,52.47
2017-11-14T09:12:09.674Z,46.57
2017-11-14T09:14:37.338Z,46.73
2017-11-14T09:17:04.954Z,40.93
2017-11-14T09:19:32.690Z,48.00
2017-11-14T09:22:00.425Z,47.70
2017-11-14T09:24:28.197Z,51.67
2017-11-14T09:26:55.875Z,47.27
2017-11-14T09:29:23.815Z,48.50
2017-11-14T09:31:51.676Z,46.80
2017-11-14T09:34:19.427Z,42.50
2017-11-14T09:36:47.255Z,44.80
2017-11-14T09:39:15.046Z,42.90
2017-11-14T09:41:42.693Z,47.53
2017-11-14T09:44:10.357Z,40.13
2017-11-14T09:46:38.019Z,37.60
2017-11-14T09:49:06.994Z,45.77
2017-11-14T09:51:34.889Z,43.53
2017-11-14T09:54:02.826Z,41.40
2017-11-14T09:56:30.516Z,42.70
2017-11-14T09:58:58.226Z,43.77
2017-11-14T10:01:25.931Z,41.57
2017-11-14T10:03:53.748Z,43.23
2017-11-14T10:06:21.463Z,48.17
2017-11-14T10:08:49.154Z,45.30
2017-11-14T10:11:17.738Z,46.03
2017-11-14T10:13:45.954Z,47.50
2017-11-14T10:16:13.848Z,45.83
2017-11-14T10:18:41.511Z,38.53
2017-11-14T10:21:09.166Z,54.73
2017-11-14T10:23:36.762Z,39.00
2017-11-14T10:26:04.387Z,40.93
2017-11-14T10:28:32.050Z,47.73
2017-11-14T10:30:59.813Z,51.90
2017-11-14T10:33:27.464Z,45.83
2017-11-14T10:35:55.339Z,45.47
2017-11-14T10:38:22.995Z,44.57
2017-11-14T10:40:50.663Z,40.93
2017-11-14T10:43:18.248Z,41.77
2017-11-14T10:45:45.864Z,42.00
2017-11-14T10:48:13.932Z,43.77
2017-11-14T10:50:41.774Z,42.07
2017-11-14T10:53:09.359Z,42.23
2017-11-14T10:55:37.026Z,41.70
2017-11-14T10:58:04.610Z,36.93
2017-11-14T11:00:37.842Z,41.90
2017-11-14T11:03:05.442Z,46.13
2017-11-14T11:05:33.115Z,44.87
2017-11-14T11:08:01.085Z,41.23
2017-11-14T11:10:28.958Z,57.97
2017-11-14T11:12:56.558Z,47.07
2017-11-14T11:15:24.203Z,51.23
2017-11-14T11:17:51.799Z,44.20
2017-11-14T11:20:19.537Z,42.83
2017-11-14T11:22:47.154Z,50.00
2017-11-14T11:25:14.778Z,53.13
2017-11-14T11:27:42.410Z,40.77
2017-11-14T11:30:10.032Z,50.50
2017-11-14T11:32:38.935Z,50.50
2017-11-14T11:35:06.575Z,45.77
2017-11-14T11:37:34.178Z,47.90
2017-11-14T11:40:02.249Z,46.90
2017-11-14T11:42:29.911Z,36.83
2017-11-14T11:44:57.566Z,38.00
2017-11-14T11:47:25.203Z,39.63
2017-11-14T11:49:52.804Z,42.13
2017-11-14T11:52:20.434Z,44.30
2017-11-14T11:54:48.035Z,42.30
2017-11-14T11:57:15.799Z,39.30
2017-11-14T11:59:43.393Z,49.17
2017-11-14T12:02:10.995Z,34.40
2017-11-14T12:04:38.637Z,37.50
2017-11-14T12:07:06.537Z,37.40
2017-11-14T12:09:34.168Z,39.57
2017-11-14T12:12:01.827Z,37.73
2017-11-14T12:14:29.502Z,45.37
2017-11-14T12:16:57.146Z,42.37
2017-11-14T12:19:25.784Z,38.37
2017-11-14T12:21:53.425Z,39.67
2017-11-14T12:24:21.155Z,43.37
2017-11-14T12:26:49.049Z,38.60
2017-11-14T12:29:16.678Z,44.87
2017-11-14T12:31:44.272Z,36.70
2017-11-14T12:34:11.923Z,32.93
2017-11-14T12:36:39.546Z,44.30
2017-11-14T12:39:07.146Z,36.53
2017-11-14T12:41:35.049Z,46.83
2017-11-14T12:44:02.669Z,36.87
2017-11-14T12:46:30.316Z,46.23
2017-11-14T12:48:57.926Z,39.13
2017-11-14T12:51:25.540Z,40.97
2017-11-14T12:53:53.161Z,39.20
2017-11-14T12:56:20.771Z,35.60
2017-11-14T12:58:48.412Z,43.13
2017-11-14T13:01:16.033Z,43.80
2017-11-14T13:03:43.648Z,35.03
2017-11-14T13:06:11.270Z,36.30
2017-11-14T13:08:38.871Z,51.30
2017-11-14T13:11:06.516Z,35.33
2017-11-14T13:13:34.106Z,41.80
2017-11-14T13:16:02.125Z,36.23
2017-11-14T13:18:29.745Z,35.83
2017-11-14T13:20:57.350Z,36.47
2017-11-14T13:23:25.034Z,38.43
2017-11-14T13:25:52.636Z,40.00
2017-11-14T13:28:20.256Z,41.23
2017-11-14T13:30:47.893Z,43.07
2017-11-14T13:33:15.549Z,30.47
2017-11-14T13:35:43.188Z,37.93
2017-11-14T13:38:10.773Z,40.30
2017-11-14T13:40:38.390Z,30.93
2017-11-14T13:43:06.029Z,29.73
2017-11-14T13:45:33.660Z,25.80
2017-11-14T13:48:01.337Z,27.60
2017-11-14T13:50:29.204Z,31.17
2017-11-14T13:52:56.799Z,27.00
2017-11-14T13:55:24.421Z,22.80
2017-11-14T13:57:52.289Z,20.07
2017-11-14T14:00:19.949Z,30.10
2017-11-14T14:02:47.550Z,23.73
2017-11-14T14:05:15.162Z,22.87
2017-11-14T14:07:43.058Z,15.33
2017-11-14T14:10:10.705Z,22.83
2017-11-14T14:12:38.357Z,17.60
2017-11-14T14:15:05.961Z,20.33
2017-11-14T14:17:33.584Z,15.67
2017-11-14T14:20:01.207Z,26.23
2017-11-14T14:22:28.804Z,16.20
2017-11-14T14:24:56.444Z,19.50
2017-11-14T14:27:24.034Z,14.67
2017-11-14T14:29:51.626Z,19.87
2017-11-14T14:32:19.257Z,17.70
2017-11-14T14:34:47.930Z,16.73
2017-11-14T14:37:15.609Z,21.23
2017-11-14T14:39:43.354Z,21.03
2017-11-14T14:42:11.262Z,23.97
2017-11-14T14:44:38.989Z,20.20
2017-11-14T14:47:06.643Z,24.90
2017-11-14T14:49:34.304Z,17.47
2017-11-14T14:52:03.396Z,22.27
2017-11-14T14:54:31.067Z,18.30
2017-11-14T14:56:58.753Z,22.60
2017-11-14T14:59:26.347Z,15.57
2017-11-14T15:01:54.005Z,17.60
2017-11-14T15:04:21.856Z,19.83
2017-11-14T15:06:49.473Z,26.13
2017-11-14T15:09:17.151Z,19.23
2017-11-14T15:11:44.797Z,17.50
2017-11-14T15:14:12.444Z,23.73
2017-11-14T15:16:40.073Z,17.13
2017-11-14T15:19:07.710Z,17.90
2017-11-14T15:21:35.453Z,16.50
2017-11-14T15:24:03.371Z,19.40
2017-11-14T15:26:31.343Z,19.83
2017-11-14T15:28:59.210Z,19.67
2017-11-14T15:31:27.186Z,16.13
2017-11-14T15:33:54.838Z,17.13
2017-11-14T15:36:22.448Z,13.70
2017-11-14T15:38:53.597Z,15.83
2017-11-14T15:41:21.201Z,20.77
2017-11-14T15:43:49.084Z,24.77
2017-11-14T15:46:16.696Z,22.33
2017-11-14T15:48:44.303Z,18.00
2017-11-14T15:51:11.909Z,15.43
2017-11-14T15:53:39.520Z,17.63
2017-11-14T15:56:07.207Z,16.90
2017-11-14T15:58:34.873Z,14.27
2017-11-14T16:01:02.466Z,10.60
2017-11-14T16:03:30.124Z,19.97
2017-11-14T16:05:57.737Z,29.93
2017-11-14T16:08:25.381Z,18.50
2017-11-14T16:10:52.976Z,19.70
2017-11-14T16:13:20.651Z,15.33
2017-11-14T16:15:48.268Z,16.63
2017-11-14T16:18:16.158Z,15.90
2017-11-14T16:20:43.799Z,19.30
2017-11-14T16:23:11.416Z,18.60
2017-11-14T16:25:39.051Z,14.40
2017-11-14T16:28:06.704Z,29.17
2017-11-14T16:30:34.313Z,19.93
2017-11-14T16:33:01.950Z,15.10
2017-11-14T16:35:29.901Z,16.80
2017-11-14T16:37:57.514Z,35.27
2017-11-14T16:40:25.136Z,19.07
2017-11-14T16:42:52.728Z,24.97
2017-11-14T16:45:20.359Z,31.83
2017-11-14T16:47:47.960Z,17.40
2017-11-14T16:50:15.559Z,16.90
2017-11-14T16:52:43.217Z,17.03
2017-11-14T16:55:11.122Z,24.33
2017-11-14T16:57:38.903Z,13.87
2017-11-14T17:00:06.598Z,19.33
2017-11-14T17:02:34.254Z,22.57
2017-11-14T17:05:01.906Z,13.70
2017-11-14T17:07:29.750Z,14.23
2017-11-14T17:09:57.373Z,16.43
2017-11-14T17:12:25.260Z,23.90
2017-11-14T17:14:52.862Z,26.33
2017-11-14T17:17:20.483Z,18.83
2017-11-14T17:19:48.108Z,16.93
2017-11-14T17:22:15.813Z,19.50
2017-11-14T17:24:43.430Z,18.43
2017-11-14T17:27:11.345Z,18.37
2017-11-14T17:29:38.957Z,19.23
2017-11-14T17:32:06.567Z,28.80
2017-11-14T17:34:34.193Z,16.90
2017-11-14T17:37:01.792Z,27.23
2017-11-14T17:39:29.611Z,21.23
2017-11-14T17:41:57.311Z,16.13
2017-11-14T17:44:24.946Z,22.40
2017-11-14T17:46:52.848Z,27.00
2017-11-14T17:49:20.454Z,15.87
2017-11-14T17:51:48.383Z,21.57
2017-11-14T17:54:16.089Z,18.27
2017-11-14T17:56:43.683Z,15.20
2017-11-14T17:59:11.392Z,15.93
2017-11-14T18:01:39.018Z,11.70
2017-11-14T18:04:06.669Z,16.90
2017-11-14T18:06:34.365Z,12.67
2017-11-14T18:09:01.977Z,16.07
2017-11-14T18:11:29.722Z,17.90
2017-11-14T18:13:57.358Z,16.10
2017-11-14T18:16:25.882Z,27.73
2017-11-14T18:18:53.668Z,19.53
2017-11-14T18:21:21.251Z,23.67
2017-11-14T18:23:49.048Z,18.67
2017-11-14T18:26:16.746Z,21.73
2017-11-14T18:28:44.528Z,20.27
2017-11-14T18:31:12.240Z,25.10
2017-11-14T18:33:39.989Z,25.60
2017-11-14T18:36:07.661Z,20.00
2017-11-14T18:38:35.347Z,25.10
2017-11-14T18:41:02.996Z,19.27
2017-11-14T18:43:31.208Z,20.17
2017-11-14T18:45:58.930Z,16.93
2017-11-14T18:48:40.801Z,27.97
2017-11-14T18:51:08.473Z,16.87
2017-11-14T18:53:36.104Z,17.00
2017-11-14T18:56:03.778Z,13.40
2017-11-14T18:58:31.469Z,18.83
2017-11-14T19:00:59.302Z,15.73
2017-11-14T19:03:27.258Z,22.63
2017-11-14T19:05:55.058Z,30.13
2017-11-14T19:08:22.798Z,20.17
2017-11-14T19:10:50.446Z,21.90
2017-11-14T19:13:18.102Z,28.13
2017-11-14T19:15:45.708Z,25.90
2017-11-14T19:18:13.331Z,25.47
2017-11-14T19:20:41.353Z,14.43
2017-11-14T19:23:08.978Z,20.10
2017-11-14T19:25:36.769Z,20.77
2017-11-14T19:28:04.445Z,20.90
2017-11-14T19:30:32.091Z,30.83
2017-11-14T19:32:59.764Z,20.10
2017-11-14T19:35:27.414Z,38.47
2017-11-14T19:37:55.085Z,22.53
2017-11-14T19:40:22.678Z,24.53
2017-11-14T19:42:50.294Z,27.60
2017-11-14T19:45:17.916Z,16.70
2017-11-14T19:47:45.516Z,17.03
2017-11-14T19:50:13.174Z,19.60
2017-11-14T19:52:40.873Z,24.47
2017-11-14T19:55:08.476Z,25.87
2017-11-14T19:57:36.098Z,25.47
2017-11-14T20:00:03.747Z,16.53
2017-11-14T20:02:31.408Z,19.80
2017-11-14T20:04:59.257Z,19.63
2017-11-14T20:07:26.898Z,26.30
2017-11-14T20:09:54.612Z,21.20
2017-11-14T20:12:22.419Z,23.87
2017-11-14T20:14:50.078Z,17.57
2017-11-14T20:17:17.692Z,19.23
2017-11-14T20:19:45.677Z,24.30
2017-11-14T20:22:13.369Z,24.40
2017-11-14T20:24:40.985Z,19.10
2017-11-14T20:27:08.637Z,25.57
2017-11-14T20:29:36.362Z,19.23
2017-11-14T20:32:04.052Z,22.47
2017-11-14T20:34:31.913Z,22.83
2017-11-14T20:36:59.529Z,24.17
2017-11-14T20:39:27.216Z,18.83
2017-11-14T20:41:54.873Z,25.67
2017-11-14T20:44:22.553Z,26.27
2017-11-14T20:46:50.194Z,24.63
2017-11-14T20:49:17.802Z,23.10
2017-11-14T20:51:45.455Z,25.97
2017-11-14T20:54:13.103Z,25.67
2017-11-14T20:56:40.801Z,25.60
2017-11-14T20:59:08.455Z,22.07
2017-11-14T21:01:36.362Z,22.53
2017-11-14T21:04:04.022Z,28.63
2017-11-14T21:06:31.649Z,25.80
2017-11-14T21:08:59.281Z,25.97
2017-11-14T21:11:26.919Z,25.27
2017-11-14T21:13:54.527Z,24.07
2017-11-14T21:16:22.225Z,21.40
2017-11-14T21:18:49.860Z,33.67
2017-11-14T21:21:17.584Z,18.13
2017-11-14T21:23:45.186Z,25.00
2017-11-14T21:26:12.814Z,25.80
2017-11-14T21:28:40.438Z,28.17
2017-11-14T21:31:08.038Z,30.90
2017-11-14T21:33:35.677Z,21.60
2017-11-14T21:36:03.357Z,26.73
2017-11-14T21:38:31.025Z,21.50
2017-11-14T21:40:59.478Z,20.27
2017-11-14T21:43:27.061Z,33.47
2017-11-14T21:45:54.697Z,26.50
2017-11-14T21:48:22.578Z,27.93
2017-11-14T21:50:50.220Z,26.67
2017-11-14T21:53:17.806Z,19.77
2017-11-14T21:55:45.432Z,24.10
2017-11-14T21:58:13.056Z,31.53
2017-11-14T22:00:40.674Z,26.13
2017-11-14T22:03:08.334Z,23.23
2017-11-14T22:05:35.934Z,24.00
2017-11-14T22:08:03.525Z,23.33
2017-11-14T22:10:31.440Z,31.17
2017-11-14T22:12:59.104Z,25.23
2017-11-14T22:15:26.746Z,35.30
2017-11-14T22:17:54.386Z,28.50
2017-11-14T22:20:22.008Z,41.90
2017-11-14T22:22:49.621Z,25.97
2017-11-14T22:25:17.236Z,28.60
2017-11-14T22:27:44.881Z,29.70
2017-11-14T22:30:12.492Z,31.57
2017-11-14T22:32:40.097Z,33.43
2017-11-14T22:35:07.712Z,32.97
2017-11-14T22:37:35.625Z,29.20
2017-11-14T22:40:03.253Z,33.03
2017-11-14T22:42:33.830Z,31.23
2017-11-14T22:45:01.424Z,27.13
2017-11-14T22:47:29.037Z,30.07
2017-11-14T22:49:56.625Z,33.43
2017-11-14T22:52:24.243Z,35.33
2017-11-14T22:54:51.831Z,43.93
2017-11-14T22:57:19.444Z,44.67
2017-11-14T22:59:47.081Z,31.10
2017-11-14T23:02:14.668Z,34.10
2017-11-14T23:04:42.297Z,33.00
2017-11-14T23:07:09.886Z,30.20
2017-11-14T23:09:37.481Z,30.50
2017-11-14T23:12:05.108Z,30.83
2017-11-14T23:14:32.687Z,39.23
2017-11-14T23:17:00.294Z,36.33
2017-11-14T23:19:27.964Z,42.73
2017-11-14T23:21:55.558Z,35.53
2017-11-14T23:24:23.472Z,31.43
2017-11-14T23:26:51.057Z,28.53
2017-11-14T23:29:18.638Z,34.03
2017-11-14T23:31:46.257Z,31.63
2017-11-14T23:34:14.127Z,36.07
2017-11-14T23:36:41.746Z,33.53
2017-11-14T23:39:09.362Z,33.23
2017-11-14T23:41:37.234Z,28.27
2017-11-14T23:44:04.861Z,37.90
2017-11-14T23:46:32.519Z,25.23
2017-11-14T23:49:00.122Z,30.90
2017-11-14T23:51:27.759Z,34.13
2017-11-14T23:53:55.353Z,35.50
2017-11-14T23:56:23.023Z,30.93
2017-11-14T23:58:50.617Z,34.70
